createdAt,value
2019-05-29T00:00:05.820Z,13.58
2019-05-29T00:01:09.008Z,13.55
2019-05-29T00:02:05.957Z,13.55
2019-05-29T00:03:06.297Z,13.58
2019-05-29T00:04:06.177Z,13.52
2019-05-29T00:05:05.985Z,13.54
2019-05-29T00:06:06.214Z,13.56
2019-05-29T00:07:06.100Z,13.56
2019-05-29T00:08:06.366Z,13.52
2019-05-29T00:09:06.020Z,13.54
2019-05-29T00:10:06.173Z,13.55
2019-05-29T00:11:06.073Z,13.49
2019-05-29T00:12:08.447Z,13.59
2019-05-29T00:13:06.281Z,13.58
2019-05-29T00:14:21.728Z,13.56
2019-05-29T00:15:06.317Z,13.47
2019-05-29T00:16:06.307Z,13.38
2019-05-29T00:17:06.432Z,13.30
2019-05-29T00:18:06.496Z,13.29
2019-05-29T00:19:06.975Z,13.22
2019-05-29T00:20:06.679Z,13.18
2019-05-29T00:21:06.775Z,13.11
2019-05-29T00:22:06.865Z,13.04
2019-05-29T00:23:06.962Z,13.02
2019-05-29T00:24:08.232Z,13.03
2019-05-29T00:25:08.426Z,13.06
2019-05-29T00:26:08.260Z,13.11
2019-05-29T00:27:07.445Z,13.18
2019-05-29T00:28:08.428Z,13.21
2019-05-29T00:29:07.571Z,13.22
2019-05-29T00:30:08.562Z,13.22
2019-05-29T00:31:07.810Z,13.29
2019-05-29T00:32:08.823Z,13.40
2019-05-29T00:33:08.008Z,13.33
2019-05-29T00:34:08.930Z,13.33
2019-05-29T00:35:08.330Z,13.37
2019-05-29T00:36:08.262Z,13.41
2019-05-29T00:37:08.571Z,13.40
2019-05-29T00:38:08.513Z,13.46
2019-05-29T00:39:08.667Z,13.37
2019-05-29T00:40:09.029Z,13.46
2019-05-29T00:41:08.837Z,13.44
2019-05-29T00:42:08.965Z,13.49
2019-05-29T00:43:09.144Z,13.40
2019-05-29T00:44:09.142Z,13.41
2019-05-29T00:45:09.500Z,13.43
2019-05-29T00:46:09.358Z,13.20
2019-05-29T00:47:09.441Z,13.09
2019-05-29T00:48:09.658Z,13.06
2019-05-29T00:49:09.724Z,13.06
2019-05-29T00:50:09.915Z,13.15
2019-05-29T00:51:09.575Z,13.18
2019-05-29T00:52:10.019Z,13.29
2019-05-29T00:53:10.146Z,13.21
2019-05-29T00:54:10.310Z,13.21
2019-05-29T00:55:10.482Z,13.20
2019-05-29T00:56:10.488Z,13.27
2019-05-29T00:57:10.886Z,13.25
2019-05-29T00:58:10.737Z,13.11
2019-05-29T00:59:11.078Z,13.06
2019-05-29T01:00:11.201Z,12.99
2019-05-29T01:01:11.411Z,12.95
2019-05-29T01:02:11.773Z,13.12
2019-05-29T01:03:11.611Z,13.11
2019-05-29T01:04:11.520Z,13.03
2019-05-29T01:05:11.902Z,13.00
2019-05-29T01:06:11.960Z,13.11
2019-05-29T01:07:12.183Z,13.11
2019-05-29T01:08:12.470Z,13.09
2019-05-29T01:09:12.307Z,12.75
2019-05-29T01:10:13.019Z,12.69
2019-05-29T01:11:12.441Z,12.77
2019-05-29T01:12:12.768Z,12.75
2019-05-29T01:13:11.645Z,12.78
2019-05-29T01:14:11.744Z,12.79
2019-05-29T01:15:11.834Z,12.79
2019-05-29T01:16:11.926Z,12.84
2019-05-29T01:17:12.253Z,12.84
2019-05-29T01:18:12.128Z,12.93
2019-05-29T01:19:12.221Z,12.93
2019-05-29T01:20:12.312Z,12.84
2019-05-29T01:21:12.407Z,12.88
2019-05-29T01:22:12.489Z,12.74
2019-05-29T01:23:12.579Z,12.79
2019-05-29T01:24:12.676Z,12.84
2019-05-29T01:25:12.771Z,12.64
2019-05-29T01:26:12.864Z,12.57
2019-05-29T01:27:12.978Z,12.60
2019-05-29T01:28:13.062Z,12.57
2019-05-29T01:29:13.157Z,12.66
2019-05-29T01:30:13.276Z,12.64
2019-05-29T01:31:13.634Z,12.67
2019-05-29T01:32:13.527Z,12.71
2019-05-29T01:33:16.851Z,12.74
2019-05-29T01:34:13.629Z,12.71
2019-05-29T01:35:13.812Z,12.79
2019-05-29T01:36:13.879Z,12.69
2019-05-29T01:37:14.015Z,12.60
2019-05-29T01:38:15.144Z,12.59
2019-05-29T01:39:15.097Z,12.66
2019-05-29T01:40:21.032Z,12.66
2019-05-29T01:41:15.087Z,12.71
2019-05-29T01:42:15.189Z,12.71
2019-05-29T01:43:15.350Z,12.67
2019-05-29T01:44:15.314Z,12.66
2019-05-29T01:45:15.445Z,12.66
2019-05-29T01:46:15.216Z,12.70
2019-05-29T01:47:15.362Z,12.71
2019-05-29T01:48:15.383Z,12.74
2019-05-29T01:49:15.997Z,12.71
2019-05-29T01:50:15.570Z,12.87
2019-05-29T01:51:15.458Z,12.82
2019-05-29T01:52:15.568Z,12.79
2019-05-29T01:53:15.580Z,12.79
2019-05-29T01:54:15.525Z,12.85
2019-05-29T01:55:15.789Z,12.82
2019-05-29T01:56:15.666Z,12.81
2019-05-29T01:57:15.813Z,12.79
2019-05-29T01:58:15.875Z,12.79
2019-05-29T01:59:15.964Z,12.70
2019-05-29T02:00:16.060Z,12.75
2019-05-29T02:01:16.155Z,12.75
2019-05-29T02:02:16.242Z,12.78
2019-05-29T02:03:16.340Z,12.82
2019-05-29T02:04:17.721Z,12.78
2019-05-29T02:05:17.738Z,12.79
2019-05-29T02:06:17.845Z,12.81
2019-05-29T02:07:17.833Z,12.88
2019-05-29T02:08:17.974Z,12.85
2019-05-29T02:09:17.928Z,12.82
2019-05-29T02:10:18.069Z,12.79
2019-05-29T02:11:17.155Z,12.74
2019-05-29T02:12:19.318Z,12.85
2019-05-29T02:13:17.326Z,12.84
2019-05-29T02:14:18.404Z,12.78
2019-05-29T02:15:27.970Z,12.70
2019-05-29T02:16:18.504Z,12.84
2019-05-29T02:17:17.822Z,12.92
2019-05-29T02:18:18.806Z,12.78
2019-05-29T02:19:17.845Z,12.81
2019-05-29T02:20:18.968Z,12.49
2019-05-29T02:21:18.092Z,12.44
2019-05-29T02:22:18.887Z,12.24
2019-05-29T02:23:18.209Z,12.26
2019-05-29T02:24:19.006Z,12.29
2019-05-29T02:25:19.646Z,12.39
2019-05-29T02:26:18.488Z,12.46
2019-05-29T02:27:19.464Z,12.42
2019-05-29T02:28:18.686Z,12.44
2019-05-29T02:29:18.790Z,12.39
2019-05-29T02:30:21.136Z,12.39
2019-05-29T02:31:19.641Z,12.31
2019-05-29T02:32:19.596Z,12.31
2019-05-29T02:33:19.638Z,12.30
2019-05-29T02:34:19.998Z,12.38
2019-05-29T02:35:20.283Z,12.39
2019-05-29T02:36:20.364Z,12.44
2019-05-29T02:37:20.159Z,12.41
2019-05-29T02:38:20.558Z,12.29
2019-05-29T02:39:21.107Z,12.37
2019-05-29T02:40:21.353Z,12.19
2019-05-29T02:41:21.683Z,12.16
2019-05-29T02:42:20.952Z,12.11
2019-05-29T02:43:21.311Z,12.02
2019-05-29T02:44:21.192Z,12.06
2019-05-29T02:45:21.617Z,11.99
2019-05-29T02:46:21.734Z,11.99
2019-05-29T02:47:21.662Z,12.13
2019-05-29T02:48:21.029Z,12.11
2019-05-29T02:49:21.566Z,12.02
2019-05-29T02:50:22.163Z,12.05
2019-05-29T02:51:22.069Z,12.09
2019-05-29T02:52:21.921Z,12.11
2019-05-29T02:53:22.234Z,12.08
2019-05-29T02:54:22.526Z,12.11
2019-05-29T02:55:22.497Z,12.12
2019-05-29T02:56:22.754Z,12.19
2019-05-29T02:57:22.823Z,12.12
2019-05-29T02:58:23.246Z,11.94
2019-05-29T02:59:23.246Z,11.90
2019-05-29T03:00:23.271Z,11.97
2019-05-29T03:01:23.588Z,11.85
2019-05-29T03:02:23.348Z,11.99
2019-05-29T03:03:23.523Z,11.99
2019-05-29T03:04:23.844Z,12.08
2019-05-29T03:05:23.717Z,12.12
2019-05-29T03:06:22.756Z,12.11
2019-05-29T03:07:22.457Z,11.93
2019-05-29T03:08:22.451Z,11.77
2019-05-29T03:09:22.911Z,11.82
2019-05-29T03:10:22.643Z,11.78
2019-05-29T03:11:23.204Z,11.87
2019-05-29T03:12:22.940Z,11.65
2019-05-29T03:13:23.268Z,11.75
2019-05-29T03:14:23.020Z,11.80
2019-05-29T03:15:23.567Z,11.72
2019-05-29T03:16:23.839Z,11.78
2019-05-29T03:17:23.664Z,11.80
2019-05-29T03:18:23.963Z,11.93
2019-05-29T03:19:23.912Z,11.78
2019-05-29T03:20:23.923Z,11.77
2019-05-29T03:21:24.074Z,11.87
2019-05-29T03:22:24.133Z,11.86
2019-05-29T03:23:24.187Z,11.82
2019-05-29T03:24:24.466Z,11.87
2019-05-29T03:25:24.342Z,11.90
2019-05-29T03:26:26.537Z,11.87
2019-05-29T03:27:25.602Z,11.96
2019-05-29T03:28:25.518Z,12.01
2019-05-29T03:29:25.779Z,11.78
2019-05-29T03:30:26.992Z,11.75
2019-05-29T03:31:27.059Z,11.85
2019-05-29T03:32:27.173Z,11.80
2019-05-29T03:33:27.131Z,11.78
2019-05-29T03:34:27.391Z,11.85
2019-05-29T03:35:27.482Z,11.80
2019-05-29T03:36:27.667Z,11.90
2019-05-29T03:37:26.255Z,11.90
2019-05-29T03:38:26.107Z,11.86
2019-05-29T03:39:26.393Z,11.90
2019-05-29T03:40:26.523Z,11.89
2019-05-29T03:41:26.274Z,11.93
2019-05-29T03:42:26.391Z,11.96
2019-05-29T03:43:26.162Z,11.97
2019-05-29T03:44:26.309Z,11.89
2019-05-29T03:45:26.764Z,11.87
2019-05-29T03:46:34.420Z,11.87
2019-05-29T03:47:26.903Z,11.85
2019-05-29T03:48:27.720Z,11.96
2019-05-29T03:49:26.851Z,11.97
2019-05-29T03:50:27.277Z,12.04
2019-05-29T03:51:27.354Z,12.05
2019-05-29T03:52:28.294Z,12.09
2019-05-29T03:53:27.044Z,12.04
2019-05-29T03:54:28.662Z,12.11
2019-05-29T03:55:27.308Z,12.11
2019-05-29T03:56:28.163Z,12.15
2019-05-29T03:57:27.687Z,12.12
2019-05-29T03:58:28.736Z,12.12
2019-05-29T03:59:28.470Z,12.13
2019-05-29T04:00:31.906Z,12.02
2019-05-29T04:01:28.942Z,12.06
2019-05-29T04:02:28.682Z,12.06
2019-05-29T04:03:28.932Z,11.99
2019-05-29T04:04:29.031Z,11.99
2019-05-29T04:05:29.112Z,12.09
2019-05-29T04:06:29.088Z,12.05
2019-05-29T04:07:29.299Z,12.05
2019-05-29T04:08:29.477Z,12.04
2019-05-29T04:09:29.166Z,12.09
2019-05-29T04:10:29.429Z,12.09
2019-05-29T04:11:29.288Z,12.11
2019-05-29T04:12:29.530Z,12.04
2019-05-29T04:13:29.598Z,12.16
2019-05-29T04:14:29.741Z,12.19
2019-05-29T04:15:29.316Z,12.16
2019-05-29T04:16:29.573Z,12.19
2019-05-29T04:17:29.769Z,12.27
2019-05-29T04:18:29.736Z,12.26
2019-05-29T04:19:30.123Z,12.21
2019-05-29T04:20:29.585Z,12.23
2019-05-29T04:21:29.655Z,12.26
2019-05-29T04:22:30.340Z,12.27
2019-05-29T04:23:29.991Z,12.26
2019-05-29T04:24:29.823Z,12.30
2019-05-29T04:25:33.265Z,12.24
2019-05-29T04:26:29.737Z,12.29
2019-05-29T04:27:30.059Z,12.31
2019-05-29T04:28:30.321Z,12.27
2019-05-29T04:29:30.127Z,12.11
2019-05-29T04:30:30.102Z,12.20
2019-05-29T04:31:30.118Z,12.15
2019-05-29T04:32:30.204Z,12.12
2019-05-29T04:33:30.685Z,12.12
2019-05-29T04:34:31.696Z,12.24
2019-05-29T04:35:30.482Z,12.20
2019-05-29T04:36:31.164Z,12.21
2019-05-29T04:37:32.481Z,12.11
2019-05-29T04:38:31.556Z,12.26
2019-05-29T04:39:32.654Z,12.19
2019-05-29T04:40:32.533Z,12.20
2019-05-29T04:41:32.676Z,12.26
2019-05-29T04:42:33.498Z,12.27
2019-05-29T04:43:33.214Z,12.30
2019-05-29T04:44:33.113Z,12.34
2019-05-29T04:45:33.067Z,12.33
2019-05-29T04:46:31.755Z,12.37
2019-05-29T04:47:33.144Z,12.33
2019-05-29T04:48:33.505Z,12.27
2019-05-29T04:49:33.646Z,12.42
2019-05-29T04:50:33.381Z,12.37
2019-05-29T04:51:33.089Z,12.42
2019-05-29T04:52:33.563Z,12.37
2019-05-29T04:53:33.518Z,12.38
2019-05-29T04:54:33.347Z,12.54
2019-05-29T04:55:32.743Z,12.56
2019-05-29T04:56:32.782Z,12.60
2019-05-29T04:57:32.875Z,12.60
2019-05-29T04:58:32.872Z,12.62
2019-05-29T04:59:33.063Z,12.62
2019-05-29T05:00:33.143Z,12.67
2019-05-29T05:01:33.096Z,12.66
2019-05-29T05:02:33.114Z,12.66
2019-05-29T05:03:33.280Z,12.64
2019-05-29T05:04:33.282Z,12.64
2019-05-29T05:05:33.357Z,12.70
2019-05-29T05:06:33.416Z,12.67
2019-05-29T05:07:33.543Z,12.63
2019-05-29T05:08:33.608Z,12.51
2019-05-29T05:09:33.701Z,12.48
2019-05-29T05:10:33.795Z,12.59
2019-05-29T05:11:33.888Z,12.59
2019-05-29T05:12:33.983Z,12.69
2019-05-29T05:13:34.079Z,12.70
2019-05-29T05:14:34.171Z,12.74
2019-05-29T05:15:34.267Z,12.74
2019-05-29T05:16:34.358Z,12.78
2019-05-29T05:17:34.452Z,12.78
2019-05-29T05:18:35.544Z,12.85
2019-05-29T05:19:35.873Z,12.82
2019-05-29T05:20:36.008Z,12.84
2019-05-29T05:21:35.954Z,12.87
2019-05-29T05:22:36.037Z,12.93
2019-05-29T05:23:36.073Z,12.96
2019-05-29T05:24:36.299Z,12.84
2019-05-29T05:25:36.348Z,12.57
2019-05-29T05:26:36.285Z,12.57
2019-05-29T05:27:36.448Z,12.45
2019-05-29T05:28:36.463Z,12.52
2019-05-29T05:29:36.286Z,12.62
2019-05-29T05:30:36.476Z,12.62
2019-05-29T05:31:36.504Z,12.59
2019-05-29T05:32:36.870Z,12.66
2019-05-29T05:33:36.750Z,12.70
2019-05-29T05:34:36.893Z,12.74
2019-05-29T05:35:36.825Z,12.88
2019-05-29T05:36:36.761Z,12.93
2019-05-29T05:37:36.924Z,12.95
2019-05-29T05:38:36.827Z,12.97
2019-05-29T05:39:37.274Z,13.06
2019-05-29T05:40:39.405Z,13.06
2019-05-29T05:41:36.907Z,13.17
2019-05-29T05:42:37.183Z,13.22
2019-05-29T05:43:36.988Z,13.33
2019-05-29T05:44:37.101Z,13.40
2019-05-29T05:45:37.158Z,13.40
2019-05-29T05:46:37.215Z,13.41
2019-05-29T05:47:49.981Z,13.55
2019-05-29T05:48:37.385Z,13.55
2019-05-29T05:49:37.479Z,13.67
2019-05-29T05:50:37.570Z,13.79
2019-05-29T05:51:41.124Z,13.91
2019-05-29T05:52:37.760Z,14.19
2019-05-29T05:53:37.852Z,14.24
2019-05-29T05:54:37.948Z,14.28
2019-05-29T05:55:38.042Z,14.27
2019-05-29T05:56:38.135Z,14.32
2019-05-29T05:57:38.226Z,14.34
2019-05-29T05:58:38.324Z,14.35
2019-05-29T05:59:38.422Z,14.14
2019-05-29T06:00:39.775Z,14.16
2019-05-29T06:01:39.934Z,14.20
2019-05-29T06:02:40.018Z,13.87
2019-05-29T06:03:40.461Z,13.67
2019-05-29T06:04:40.028Z,13.63
2019-05-29T06:05:40.107Z,13.52
2019-05-29T06:06:40.203Z,13.58
2019-05-29T06:07:40.430Z,13.54
2019-05-29T06:08:40.228Z,13.40
2019-05-29T06:09:40.418Z,13.40
2019-05-29T06:10:40.285Z,13.46
2019-05-29T06:11:40.391Z,13.49
2019-05-29T06:12:40.593Z,13.40
2019-05-29T06:13:40.496Z,13.59
2019-05-29T06:14:40.648Z,13.54
2019-05-29T06:15:40.653Z,13.59
2019-05-29T06:16:40.709Z,13.52
2019-05-29T06:17:40.751Z,13.67
2019-05-29T06:18:40.654Z,13.94
2019-05-29T06:19:41.133Z,14.32
2019-05-29T06:20:40.998Z,14.50
2019-05-29T06:21:40.921Z,14.29
2019-05-29T06:22:41.162Z,13.88
2019-05-29T06:23:41.144Z,13.98
2019-05-29T06:24:41.046Z,14.12
2019-05-29T06:25:42.476Z,14.19
2019-05-29T06:26:41.122Z,14.38
2019-05-29T06:27:41.418Z,14.44
2019-05-29T06:28:41.310Z,14.54
2019-05-29T06:29:41.344Z,14.62
2019-05-29T06:30:43.317Z,14.57
2019-05-29T06:31:41.505Z,14.53
2019-05-29T06:32:41.659Z,14.54
2019-05-29T06:33:41.661Z,13.95
2019-05-29T06:34:41.757Z,13.87
2019-05-29T06:35:41.854Z,14.17
2019-05-29T06:36:41.956Z,14.50
2019-05-29T06:37:42.045Z,14.67
2019-05-29T06:38:42.270Z,14.84
2019-05-29T06:39:42.235Z,15.11
2019-05-29T06:40:42.327Z,15.31
2019-05-29T06:41:42.426Z,15.57
2019-05-29T06:42:42.538Z,15.54
2019-05-29T06:43:44.101Z,15.51
2019-05-29T06:44:44.868Z,15.66
2019-05-29T06:45:44.031Z,15.76
2019-05-29T06:46:45.150Z,15.61
2019-05-29T06:47:44.477Z,15.75
2019-05-29T06:48:57.447Z,15.78
2019-05-29T06:49:44.270Z,15.79
2019-05-29T06:50:43.500Z,15.85
2019-05-29T06:51:43.512Z,15.96
2019-05-29T06:52:43.621Z,15.89
2019-05-29T06:53:43.912Z,15.66
2019-05-29T06:54:44.126Z,15.48
2019-05-29T06:55:44.024Z,15.31
2019-05-29T06:56:43.893Z,14.60
2019-05-29T06:57:44.509Z,14.50
2019-05-29T06:58:44.415Z,14.43
2019-05-29T06:59:44.718Z,14.54
2019-05-29T07:00:44.854Z,14.54
2019-05-29T07:01:44.354Z,14.65
2019-05-29T07:02:44.886Z,14.65
2019-05-29T07:03:44.543Z,14.61
2019-05-29T07:04:44.733Z,14.67
2019-05-29T07:05:50.668Z,14.78
2019-05-29T07:06:44.902Z,14.81
2019-05-29T07:07:44.927Z,14.65
2019-05-29T07:08:48.263Z,14.46
2019-05-29T07:09:45.194Z,14.37
2019-05-29T07:10:45.222Z,14.42
2019-05-29T07:11:45.538Z,14.43
2019-05-29T07:12:46.442Z,14.44
2019-05-29T07:13:48.444Z,14.56
2019-05-29T07:14:46.572Z,14.43
2019-05-29T07:15:46.189Z,14.21
2019-05-29T07:16:55.663Z,14.43
2019-05-29T07:17:46.694Z,14.19
2019-05-29T07:19:22.960Z,14.32
2019-05-29T07:19:57.970Z,14.21
2019-05-29T07:20:46.984Z,14.44
2019-05-29T07:21:47.192Z,14.52
2019-05-29T07:22:47.121Z,14.67
2019-05-29T07:23:48.422Z,14.80
2019-05-29T07:24:47.031Z,14.88
2019-05-29T07:25:47.431Z,15.01
2019-05-29T07:26:47.252Z,15.23
2019-05-29T07:27:47.061Z,15.27
2019-05-29T07:29:02.967Z,15.42
2019-05-29T07:29:47.400Z,15.41
2019-05-29T07:30:53.722Z,15.56
2019-05-29T07:31:47.319Z,15.48
2019-05-29T07:32:56.769Z,15.60
2019-05-29T07:33:47.486Z,15.51
2019-05-29T07:35:02.342Z,15.60
2019-05-29T07:35:47.833Z,15.94
2019-05-29T07:36:48.182Z,16.01
2019-05-29T07:37:48.128Z,15.68
2019-05-29T07:39:01.955Z,15.74
2019-05-29T07:39:48.000Z,15.94
2019-05-29T07:40:49.869Z,15.96
2019-05-29T07:41:48.180Z,16.04
2019-05-29T07:42:55.066Z,15.93
2019-05-29T07:43:48.386Z,16.04
2019-05-29T07:44:48.467Z,16.22
2019-05-29T07:45:48.560Z,16.20
2019-05-29T07:46:48.928Z,16.31
2019-05-29T07:47:48.749Z,16.34
2019-05-29T07:48:50.379Z,16.26
2019-05-29T07:49:50.279Z,16.41
2019-05-29T07:50:49.037Z,16.35
2019-05-29T07:51:49.139Z,16.59
2019-05-29T07:52:49.402Z,16.62
2019-05-29T07:53:49.326Z,16.63
2019-05-29T07:54:50.044Z,16.65
2019-05-29T07:55:49.516Z,16.89
2019-05-29T07:56:49.613Z,17.14
2019-05-29T07:57:49.710Z,17.18
2019-05-29T07:59:01.545Z,17.29
2019-05-29T07:59:49.909Z,17.26
2019-05-29T08:01:08.961Z,17.40
2019-05-29T08:01:50.090Z,17.40
2019-05-29T08:02:50.184Z,17.47
2019-05-29T08:03:50.314Z,17.32
2019-05-29T08:04:50.377Z,17.15
2019-05-29T08:05:52.643Z,17.11
2019-05-29T08:06:54.336Z,16.68
2019-05-29T08:07:50.679Z,16.70
2019-05-29T08:08:50.867Z,16.71
2019-05-29T08:09:50.875Z,16.81
2019-05-29T08:10:50.969Z,17.15
2019-05-29T08:11:51.067Z,17.22
2019-05-29T08:12:55.564Z,16.78
2019-05-29T08:13:51.259Z,16.18
2019-05-29T08:14:51.376Z,16.04
2019-05-29T08:16:01.861Z,16.18
2019-05-29T08:16:51.547Z,16.50
2019-05-29T08:17:51.642Z,16.65
2019-05-29T08:18:52.942Z,16.81
2019-05-29T08:20:03.248Z,16.99
2019-05-29T08:20:51.930Z,17.20
2019-05-29T08:21:52.026Z,17.44
2019-05-29T08:22:52.127Z,17.59
2019-05-29T08:23:52.218Z,17.70
2019-05-29T08:24:52.314Z,17.89
2019-05-29T08:25:52.411Z,18.12
2019-05-29T08:26:52.517Z,18.21
2019-05-29T08:27:52.612Z,18.33
2019-05-29T08:28:52.711Z,18.46
2019-05-29T08:29:52.808Z,18.44
2019-05-29T08:30:56.409Z,18.52
2019-05-29T08:31:53.005Z,18.52
2019-05-29T08:32:53.117Z,18.70
2019-05-29T08:33:53.193Z,18.64
2019-05-29T08:34:53.279Z,18.68
2019-05-29T08:35:59.886Z,18.83
2019-05-29T08:37:06.032Z,18.95
2019-05-29T08:37:53.564Z,18.86
2019-05-29T08:38:53.664Z,18.82
2019-05-29T08:39:53.761Z,18.98
2019-05-29T08:40:53.861Z,18.94
2019-05-29T08:42:19.579Z,18.84
2019-05-29T08:42:54.087Z,18.94
2019-05-29T08:44:01.372Z,18.62
2019-05-29T08:44:54.221Z,18.52
2019-05-29T08:45:54.336Z,18.52
2019-05-29T08:47:09.042Z,18.54
2019-05-29T08:47:54.513Z,18.68
2019-05-29T08:48:54.628Z,18.79
2019-05-29T08:49:54.788Z,18.97
2019-05-29T08:50:54.803Z,18.92
2019-05-29T08:52:10.609Z,18.94
2019-05-29T08:52:54.999Z,18.77
2019-05-29T08:53:55.091Z,18.52
2019-05-29T08:54:55.187Z,18.09
2019-05-29T08:55:55.283Z,18.02
2019-05-29T08:56:55.384Z,18.22
2019-05-29T08:57:55.478Z,18.42
2019-05-29T08:58:55.579Z,18.64
2019-05-29T08:59:55.682Z,18.73
2019-05-29T09:00:55.780Z,18.76
2019-05-29T09:01:55.918Z,18.43
2019-05-29T09:02:55.976Z,18.31
2019-05-29T09:03:56.081Z,18.54
2019-05-29T09:04:56.169Z,18.65
2019-05-29T09:06:08.516Z,18.59
2019-05-29T09:06:56.361Z,18.55
2019-05-29T09:07:56.459Z,18.49
2019-05-29T09:08:56.561Z,18.50
2019-05-29T09:09:56.657Z,18.31
2019-05-29T09:10:56.754Z,17.97
2019-05-29T09:11:56.852Z,17.29
2019-05-29T09:13:04.914Z,17.11
2019-05-29T09:13:57.060Z,17.07
2019-05-29T09:14:57.154Z,17.17
2019-05-29T09:15:57.252Z,16.68
2019-05-29T09:16:57.349Z,16.99
2019-05-29T09:17:57.446Z,17.07
2019-05-29T09:18:57.541Z,17.22
2019-05-29T09:19:57.640Z,17.57
2019-05-29T09:21:03.439Z,17.36
2019-05-29T09:21:57.832Z,17.29
2019-05-29T09:22:57.927Z,17.44
2019-05-29T09:23:59.042Z,17.70
2019-05-29T09:24:58.120Z,17.63
2019-05-29T09:26:13.615Z,17.55
2019-05-29T09:26:58.315Z,17.92
2019-05-29T09:27:58.411Z,17.99
2019-05-29T09:28:58.507Z,18.42
2019-05-29T09:29:58.604Z,18.61
2019-05-29T09:30:58.705Z,18.73
2019-05-29T09:31:58.801Z,18.84
2019-05-29T09:32:58.896Z,18.98
2019-05-29T09:33:58.998Z,19.11
2019-05-29T09:34:59.094Z,19.21
2019-05-29T09:35:59.189Z,19.14
2019-05-29T09:36:59.321Z,18.94
2019-05-29T09:37:59.394Z,19.01
2019-05-29T09:38:59.496Z,19.17
2019-05-29T09:39:59.606Z,19.33
2019-05-29T09:40:59.681Z,19.38
2019-05-29T09:41:59.778Z,19.43
2019-05-29T09:42:59.878Z,19.68
2019-05-29T09:44:00.419Z,19.80
2019-05-29T09:45:00.074Z,19.87
2019-05-29T09:46:02.292Z,19.94
2019-05-29T09:47:00.271Z,19.98
2019-05-29T09:48:00.372Z,20.08
2019-05-29T09:49:01.568Z,20.09
2019-05-29T09:50:00.575Z,19.61
2019-05-29T09:51:19.961Z,19.69
2019-05-29T09:52:01.010Z,19.80
2019-05-29T09:53:02.699Z,19.46
2019-05-29T09:54:01.499Z,19.29
2019-05-29T09:55:02.484Z,19.35
2019-05-29T09:56:02.912Z,19.43
2019-05-29T09:57:01.259Z,19.57
2019-05-29T09:58:02.665Z,19.32
2019-05-29T09:59:01.813Z,19.14
2019-05-29T10:00:02.155Z,19.35
2019-05-29T10:01:18.334Z,19.33
2019-05-29T10:02:05.963Z,19.25
2019-05-29T10:03:01.909Z,19.20
2019-05-29T10:04:05.776Z,19.43
2019-05-29T10:05:02.918Z,19.39
2019-05-29T10:06:02.188Z,19.47
2019-05-29T10:07:04.144Z,19.55
2019-05-29T10:08:04.066Z,19.61
2019-05-29T10:09:03.644Z,19.60
2019-05-29T10:10:03.526Z,19.75
2019-05-29T10:11:08.422Z,19.90
2019-05-29T10:12:06.371Z,19.87
2019-05-29T10:13:04.206Z,19.87
2019-05-29T10:14:04.959Z,19.76
2019-05-29T10:15:04.329Z,19.73
2019-05-29T10:16:04.606Z,19.54
2019-05-29T10:17:09.164Z,19.39
2019-05-29T10:18:07.389Z,19.40
2019-05-29T10:19:04.861Z,19.43
2019-05-29T10:20:03.527Z,19.42
2019-05-29T10:21:03.637Z,19.43
2019-05-29T10:22:04.506Z,19.51
2019-05-29T10:23:05.064Z,19.61
2019-05-29T10:24:04.197Z,19.46
2019-05-29T10:25:04.023Z,19.39
2019-05-29T10:26:05.042Z,19.53
2019-05-29T10:27:05.291Z,19.63
2019-05-29T10:28:06.086Z,19.47
2019-05-29T10:29:09.187Z,19.57
2019-05-29T10:30:04.505Z,19.58
2019-05-29T10:31:05.148Z,19.42
2019-05-29T10:32:04.704Z,19.57
2019-05-29T10:33:04.804Z,19.78
2019-05-29T10:34:04.901Z,19.83
2019-05-29T10:35:05.027Z,19.80
2019-05-29T10:36:05.097Z,19.90
2019-05-29T10:37:05.185Z,19.98
2019-05-29T10:38:05.284Z,19.94
2019-05-29T10:39:05.380Z,19.83
2019-05-29T10:40:05.482Z,19.83
2019-05-29T10:41:07.158Z,19.58
2019-05-29T10:42:05.674Z,19.38
2019-05-29T10:43:05.774Z,19.43
2019-05-29T10:44:05.870Z,19.31
2019-05-29T10:45:05.974Z,19.43
2019-05-29T10:46:06.079Z,19.55
2019-05-29T10:47:06.163Z,19.68
2019-05-29T10:48:06.282Z,19.79
2019-05-29T10:49:06.380Z,19.88
2019-05-29T10:50:06.477Z,19.97
2019-05-29T10:51:06.566Z,20.05
2019-05-29T10:52:15.635Z,20.10
2019-05-29T10:53:06.763Z,20.06
2019-05-29T10:54:06.878Z,20.27
2019-05-29T10:55:06.966Z,20.13
2019-05-29T10:56:07.051Z,20.25
2019-05-29T10:57:07.154Z,20.34
2019-05-29T10:58:07.251Z,20.18
2019-05-29T10:59:07.352Z,19.95
2019-05-29T11:00:07.450Z,19.78
2019-05-29T11:01:07.546Z,19.54
2019-05-29T11:02:07.644Z,19.61
2019-05-29T11:03:07.744Z,19.02
2019-05-29T11:04:07.840Z,19.06
2019-05-29T11:05:07.937Z,18.97
2019-05-29T11:06:08.041Z,19.01
2019-05-29T11:07:08.135Z,19.08
2019-05-29T11:08:08.233Z,19.31
2019-05-29T11:09:08.329Z,19.29
2019-05-29T11:10:08.429Z,19.25
2019-05-29T11:11:08.524Z,19.32
2019-05-29T11:12:08.622Z,19.31
2019-05-29T11:13:08.718Z,19.25
2019-05-29T11:14:08.822Z,19.33
2019-05-29T11:15:20.762Z,19.54
2019-05-29T11:16:09.032Z,19.55
2019-05-29T11:17:09.130Z,19.65
2019-05-29T11:18:09.232Z,19.38
2019-05-29T11:19:09.329Z,19.28
2019-05-29T11:20:09.430Z,19.31
2019-05-29T11:21:09.518Z,19.36
2019-05-29T11:22:25.277Z,18.82
2019-05-29T11:23:09.723Z,18.55
2019-05-29T11:24:09.811Z,18.52
2019-05-29T11:25:22.652Z,18.72
2019-05-29T11:26:10.005Z,18.83
2019-05-29T11:27:10.101Z,18.83
2019-05-29T11:28:10.198Z,18.83
2019-05-29T11:29:10.300Z,19.02
2019-05-29T11:30:10.390Z,19.11
2019-05-29T11:31:10.485Z,19.36
2019-05-29T11:32:10.741Z,19.36
2019-05-29T11:33:10.725Z,19.58
2019-05-29T11:34:10.821Z,19.60
2019-05-29T11:35:10.955Z,19.60
2019-05-29T11:36:13.635Z,19.75
2019-05-29T11:37:11.113Z,19.84
2019-05-29T11:38:11.288Z,19.84
2019-05-29T11:39:11.315Z,19.57
2019-05-29T11:40:11.407Z,18.99
2019-05-29T11:41:25.291Z,19.02
2019-05-29T11:42:26.223Z,19.20
2019-05-29T11:43:11.728Z,19.29
2019-05-29T11:44:11.826Z,19.18
2019-05-29T11:45:11.920Z,19.23
2019-05-29T11:46:12.017Z,19.35
2019-05-29T11:47:12.116Z,19.54
2019-05-29T11:48:12.232Z,19.83
2019-05-29T11:49:12.313Z,19.97
2019-05-29T11:50:19.190Z,20.18
2019-05-29T11:51:12.507Z,20.46
2019-05-29T11:52:23.659Z,20.13
2019-05-29T11:53:12.731Z,20.08
2019-05-29T11:54:12.810Z,20.13
2019-05-29T11:55:12.906Z,20.23
2019-05-29T11:56:12.990Z,20.46
2019-05-29T11:57:13.098Z,20.59
2019-05-29T11:58:29.967Z,20.81
2019-05-29T11:59:13.290Z,20.79
2019-05-29T12:00:19.826Z,20.90
2019-05-29T12:01:13.486Z,20.98
2019-05-29T12:02:13.581Z,21.17
2019-05-29T12:03:13.690Z,21.17
2019-05-29T12:04:25.808Z,21.26
2019-05-29T12:05:13.885Z,21.42
2019-05-29T12:06:14.143Z,21.16
2019-05-29T12:07:14.078Z,20.83
2019-05-29T12:08:14.181Z,20.87
2019-05-29T12:09:29.050Z,20.93
2019-05-29T12:10:14.528Z,21.05
2019-05-29T12:11:14.470Z,20.83
2019-05-29T12:12:14.563Z,20.89
2019-05-29T12:13:14.666Z,20.98
2019-05-29T12:14:14.759Z,20.98
2019-05-29T12:15:17.645Z,20.91
2019-05-29T12:16:14.956Z,20.79
2019-05-29T12:17:15.056Z,20.87
2019-05-29T12:18:23.473Z,20.80
2019-05-29T12:19:15.293Z,20.71
2019-05-29T12:20:29.253Z,20.86
2019-05-29T12:21:15.486Z,20.89
2019-05-29T12:22:15.593Z,21.04
2019-05-29T12:23:25.999Z,20.99
2019-05-29T12:24:15.789Z,20.98
2019-05-29T12:25:15.895Z,21.02
2019-05-29T12:26:22.374Z,20.23
2019-05-29T12:27:16.076Z,19.95
2019-05-29T12:28:16.174Z,20.06
2019-05-29T12:29:16.263Z,20.09
2019-05-29T12:30:16.380Z,20.33
2019-05-29T12:31:16.488Z,20.47
2019-05-29T12:32:16.626Z,20.61
2019-05-29T12:33:16.715Z,20.53
2019-05-29T12:34:19.391Z,20.54
2019-05-29T12:35:16.918Z,20.66
2019-05-29T12:36:17.012Z,20.74
2019-05-29T12:37:17.114Z,20.93
2019-05-29T12:38:17.215Z,20.89
2019-05-29T12:39:17.314Z,21.04
2019-05-29T12:40:17.456Z,20.89
2019-05-29T12:41:17.536Z,20.54
2019-05-29T12:42:17.639Z,20.62
2019-05-29T12:43:27.057Z,20.54
2019-05-29T12:44:17.824Z,20.83
2019-05-29T12:45:17.918Z,20.90
2019-05-29T12:46:18.017Z,20.74
2019-05-29T12:47:18.112Z,20.71
2019-05-29T12:48:18.211Z,20.68
2019-05-29T12:49:18.303Z,20.62
2019-05-29T12:50:18.407Z,20.53
2019-05-29T12:51:18.499Z,20.42
2019-05-29T12:52:18.599Z,20.58
2019-05-29T12:53:29.579Z,20.34